createdAt,value
2024-02-15T00:00:00.648Z,8.30
2024-02-15T00:02:27.718Z,8.40
2024-02-15T00:04:54.682Z,8.30
2024-02-15T00:07:23.991Z,8.20
2024-02-15T00:09:51.206Z,8.20
2024-02-15T00:12:18.206Z,8.20
2024-02-15T00:14:45.211Z,8.20
2024-02-15T00:17:13.018Z,8.20
2024-02-15T00:19:42.871Z,8.20
2024-02-15T00:22:10.804Z,8.20
2024-02-15T00:24:39.321Z,8.20
2024-02-15T00:27:06.827Z,8.20
2024-02-15T00:29:35.542Z,8.10
2024-02-15T00:32:04.780Z,8.20
2024-02-15T00:34:32.418Z,8.10
2024-02-15T00:36:59.876Z,8.10
2024-02-15T00:39:26.772Z,8.10
2024-02-15T00:41:53.773Z,8.00
2024-02-15T00:44:21.337Z,8.10
2024-02-15T00:46:49.151Z,8.10
2024-02-15T00:49:16.749Z,8.10
2024-02-15T00:51:43.874Z,8.00
2024-02-15T00:54:10.750Z,7.80
2024-02-15T00:56:37.762Z,8.00
2024-02-15T00:59:06.404Z,7.90
2024-02-15T01:01:33.459Z,7.80
2024-02-15T01:04:00.361Z,7.80
2024-02-15T01:06:27.417Z,7.80
2024-02-15T01:08:54.456Z,7.80
2024-02-15T01:11:21.978Z,7.70
2024-02-15T01:13:48.914Z,7.70
2024-02-15T01:16:16.688Z,7.70
2024-02-15T01:18:43.986Z,7.90
2024-02-15T01:21:12.501Z,7.80
2024-02-15T01:23:40.047Z,7.80
2024-02-15T01:26:07.110Z,7.80
2024-02-15T01:28:34.043Z,7.70
2024-02-15T01:31:01.122Z,7.70
2024-02-15T01:33:28.332Z,7.70
2024-02-15T01:35:55.892Z,7.70
2024-02-15T01:38:23.142Z,7.60
2024-02-15T01:40:50.226Z,7.50
2024-02-15T01:43:17.196Z,7.40
2024-02-15T01:45:44.241Z,7.40
2024-02-15T01:48:12.229Z,7.40
2024-02-15T01:50:40.049Z,7.40
2024-02-15T01:53:11.375Z,7.30
2024-02-15T01:55:40.983Z,7.30
2024-02-15T01:58:08.329Z,7.30
2024-02-15T02:00:37.651Z,7.40
2024-02-15T02:03:06.177Z,7.30
2024-02-15T02:05:33.267Z,7.30
2024-02-15T02:08:02.747Z,7.30
2024-02-15T02:10:33.812Z,7.30
2024-02-15T02:13:05.128Z,7.30
2024-02-15T02:15:35.767Z,7.30
2024-02-15T02:18:03.118Z,7.40
2024-02-15T02:20:30.407Z,7.40
2024-02-15T02:23:15.240Z,7.30
2024-02-15T02:25:45.535Z,7.40
2024-02-15T02:28:13.248Z,7.40
2024-02-15T02:30:42.862Z,7.50
2024-02-15T02:33:20.473Z,7.50
2024-02-15T02:35:49.263Z,7.60
2024-02-15T02:38:16.751Z,7.60
2024-02-15T02:40:43.772Z,7.60
2024-02-15T02:43:11.182Z,7.70
2024-02-15T02:45:38.572Z,7.70
2024-02-15T02:48:06.540Z,7.80
2024-02-15T02:50:33.860Z,7.80
2024-02-15T02:53:01.175Z,7.80
2024-02-15T02:55:31.779Z,7.80
2024-02-15T02:57:58.787Z,7.70
2024-02-15T03:00:25.761Z,7.70
2024-02-15T03:02:52.830Z,7.80
2024-02-15T03:05:22.352Z,7.60
2024-02-15T03:07:49.880Z,7.80
2024-02-15T03:10:16.877Z,7.60
2024-02-15T03:12:49.028Z,7.60
2024-02-15T03:15:18.061Z,7.60
2024-02-15T03:17:48.674Z,7.60
2024-02-15T03:20:22.394Z,7.60
2024-02-15T03:22:57.665Z,7.60
2024-02-15T03:25:26.190Z,7.70
2024-02-15T03:27:54.900Z,7.60
2024-02-15T03:30:23.512Z,7.70
2024-02-15T03:32:52.240Z,7.70
2024-02-15T03:35:25.223Z,7.70
2024-02-15T03:37:53.257Z,7.70
2024-02-15T03:40:21.780Z,7.70
2024-02-15T03:42:49.233Z,7.70
2024-02-15T03:45:17.147Z,7.50
2024-02-15T03:47:44.392Z,7.60
2024-02-15T03:50:11.846Z,7.50
2024-02-15T03:52:39.634Z,7.50
2024-02-15T03:55:08.678Z,7.40
2024-02-15T03:57:36.778Z,7.50
2024-02-15T04:00:05.550Z,7.40
2024-02-15T04:02:32.547Z,7.30
2024-02-15T04:04:59.431Z,7.30
2024-02-15T04:07:28.034Z,7.30
2024-02-15T04:09:55.386Z,7.30
2024-02-15T04:12:22.815Z,7.30
2024-02-15T04:14:50.298Z,7.20
2024-02-15T04:17:18.210Z,7.30
2024-02-15T04:19:48.933Z,7.20
2024-02-15T04:22:17.369Z,7.20
2024-02-15T04:24:46.489Z,7.20
2024-02-15T04:27:15.217Z,7.20
2024-02-15T04:29:45.280Z,7.20
2024-02-15T04:32:14.327Z,7.20
2024-02-15T04:34:41.818Z,7.20
2024-02-15T04:37:09.193Z,7.40
2024-02-15T04:39:37.256Z,7.40
2024-02-15T04:42:10.979Z,7.50
2024-02-15T04:44:41.298Z,7.50
2024-02-15T04:47:09.751Z,7.50
2024-02-15T04:49:39.243Z,7.50
2024-02-15T04:52:07.741Z,7.40
2024-02-15T04:54:34.780Z,7.50
2024-02-15T04:57:02.173Z,7.40
2024-02-15T04:59:30.377Z,7.40
2024-02-15T05:01:59.252Z,7.60
2024-02-15T05:04:26.363Z,7.50
2024-02-15T05:06:54.489Z,7.40
2024-02-15T05:09:21.586Z,7.40
2024-02-15T05:11:49.626Z,7.30
2024-02-15T05:14:20.818Z,7.20
2024-02-15T05:16:49.737Z,7.20
2024-02-15T05:19:20.167Z,7.10
2024-02-15T05:21:47.752Z,7.10
2024-02-15T05:24:16.694Z,7.00
2024-02-15T05:26:49.969Z,6.90
2024-02-15T05:29:18.055Z,6.90
2024-02-15T05:31:45.118Z,6.90
2024-02-15T05:34:13.316Z,6.70
2024-02-15T05:36:40.735Z,6.80
2024-02-15T05:39:08.834Z,6.70
2024-02-15T05:41:36.585Z,6.80
2024-02-15T05:44:07.965Z,6.80
2024-02-15T05:46:38.721Z,6.80
2024-02-15T05:49:06.536Z,6.70
2024-02-15T05:51:35.623Z,6.70
2024-02-15T05:54:03.560Z,6.70
2024-02-15T05:56:30.618Z,6.70
2024-02-15T05:58:58.276Z,6.60
2024-02-15T06:01:25.574Z,6.60
2024-02-15T06:03:56.236Z,6.50
2024-02-15T06:06:24.398Z,6.50
2024-02-15T06:08:51.598Z,6.40
2024-02-15T06:11:22.071Z,6.40
2024-02-15T06:13:49.442Z,6.40
2024-02-15T06:16:16.362Z,6.40
2024-02-15T06:18:43.497Z,6.40
2024-02-15T06:21:10.645Z,6.40
2024-02-15T06:23:38.553Z,6.30
2024-02-15T06:26:05.702Z,6.40
2024-02-15T06:28:51.036Z,6.40
2024-02-15T06:31:36.500Z,6.40
2024-02-15T06:34:22.173Z,6.40
2024-02-15T06:37:10.073Z,6.30
2024-02-15T06:39:43.100Z,6.30
2024-02-15T06:42:19.548Z,6.20
2024-02-15T06:44:48.270Z,6.20
2024-02-15T06:47:18.594Z,6.20
2024-02-15T06:49:47.606Z,6.20
2024-02-15T06:52:15.061Z,6.20
2024-02-15T06:54:43.484Z,6.30
2024-02-15T06:57:11.334Z,6.50
2024-02-15T06:59:40.566Z,6.60
2024-02-15T07:02:09.468Z,6.80
2024-02-15T07:04:38.216Z,7.00
2024-02-15T07:07:05.903Z,7.10
2024-02-15T07:09:33.667Z,7.40
2024-02-15T07:12:00.957Z,7.50
2024-02-15T07:14:30.785Z,7.50
2024-02-15T07:17:00.400Z,7.60
2024-02-15T07:19:28.819Z,7.30
2024-02-15T07:21:57.934Z,7.30
2024-02-15T07:24:28.107Z,7.30
2024-02-15T07:26:56.830Z,7.30
2024-02-15T07:29:24.633Z,7.40
2024-02-15T07:31:51.838Z,7.30
2024-02-15T07:34:19.091Z,7.30
2024-02-15T07:36:46.682Z,7.50
2024-02-15T07:39:24.198Z,7.60
2024-02-15T07:41:54.157Z,7.60
2024-02-15T07:44:21.386Z,7.80
2024-02-15T07:46:48.651Z,7.90
2024-02-15T07:49:15.925Z,8.10
2024-02-15T07:51:42.967Z,8.20
2024-02-15T07:54:09.913Z,8.40
2024-02-15T07:56:36.950Z,8.50
2024-02-15T07:59:04.147Z,8.60
2024-02-15T08:01:32.624Z,8.90
2024-02-15T08:03:59.654Z,9.20
2024-02-15T08:06:29.279Z,9.40
2024-02-15T08:08:56.585Z,9.70
2024-02-15T08:11:24.671Z,10.10
2024-02-15T08:13:59.977Z,10.60
2024-02-15T08:16:28.585Z,11.20
2024-02-15T08:18:56.711Z,11.60
2024-02-15T08:21:37.299Z,11.80
2024-02-15T08:24:06.845Z,12.20
2024-02-15T08:26:37.289Z,12.30
2024-02-15T08:29:04.435Z,11.90
2024-02-15T08:31:32.881Z,11.90
2024-02-15T08:34:00.015Z,11.40
2024-02-15T08:36:27.204Z,10.50
2024-02-15T08:38:55.150Z,10.10
2024-02-15T08:41:24.523Z,10.30
2024-02-15T08:43:51.413Z,11.30
2024-02-15T08:46:18.296Z,12.50
2024-02-15T08:48:45.944Z,13.50
2024-02-15T08:51:13.263Z,14.50
2024-02-15T08:53:40.342Z,14.20
2024-02-15T08:56:07.537Z,14.80
2024-02-15T08:58:34.459Z,14.90
2024-02-15T09:01:01.683Z,15.20
2024-02-15T09:03:28.767Z,14.60
2024-02-15T09:05:55.840Z,14.90
2024-02-15T09:08:23.470Z,15.60
2024-02-15T09:10:54.936Z,16.20
2024-02-15T09:13:21.889Z,16.60
2024-02-15T09:15:48.746Z,17.00
2024-02-15T09:18:16.168Z,17.10
2024-02-15T09:20:46.064Z,17.30
2024-02-15T09:23:13.439Z,17.60
2024-02-15T09:25:40.373Z,18.10
2024-02-15T09:28:07.690Z,18.40
2024-02-15T09:30:36.440Z,18.40
2024-02-15T09:33:06.174Z,18.30
2024-02-15T09:35:33.611Z,18.30
2024-02-15T09:38:00.667Z,18.40
2024-02-15T09:40:30.318Z,18.30
2024-02-15T09:42:57.467Z,17.70
2024-02-15T09:45:26.150Z,17.90
2024-02-15T09:47:54.834Z,16.40
2024-02-15T09:50:25.537Z,15.80
2024-02-15T09:52:57.639Z,16.30
2024-02-15T09:55:25.690Z,16.20
2024-02-15T09:57:52.778Z,16.40
2024-02-15T10:00:20.316Z,16.90
2024-02-15T10:02:57.055Z,15.50
2024-02-15T10:05:24.546Z,15.50
2024-02-15T10:07:51.603Z,16.40
2024-02-15T10:10:24.310Z,17.10
2024-02-15T10:12:57.098Z,16.00
2024-02-15T10:15:41.470Z,15.90
2024-02-15T10:18:11.936Z,16.00
2024-02-15T10:20:46.186Z,16.60
2024-02-15T10:23:18.656Z,17.70
2024-02-15T10:25:46.342Z,18.70
2024-02-15T10:28:16.917Z,19.70
2024-02-15T10:30:46.979Z,19.20
2024-02-15T10:33:31.476Z,19.00
2024-02-15T10:36:10.245Z,19.70
2024-02-15T10:38:37.680Z,19.80
2024-02-15T10:41:07.250Z,18.20
2024-02-15T10:43:41.249Z,19.40
2024-02-15T10:46:11.832Z,20.50
2024-02-15T10:48:40.053Z,21.30
2024-02-15T10:51:13.288Z,21.80
2024-02-15T10:53:51.961Z,22.10
2024-02-15T10:56:24.642Z,22.20
2024-02-15T10:59:21.351Z,22.10
2024-02-15T11:01:54.195Z,21.20
2024-02-15T11:04:26.697Z,21.30
2024-02-15T11:06:56.836Z,21.30
2024-02-15T11:09:24.794Z,21.50
2024-02-15T11:11:53.972Z,20.50
2024-02-15T11:14:31.428Z,19.90
2024-02-15T11:17:03.608Z,20.70
2024-02-15T11:19:36.288Z,21.60
2024-02-15T11:22:16.686Z,21.60
2024-02-15T11:24:53.336Z,21.50
2024-02-15T11:27:32.770Z,22.40
2024-02-15T11:30:22.468Z,23.30
2024-02-15T11:32:51.513Z,23.70
2024-02-15T11:35:21.708Z,24.30
2024-02-15T11:37:51.808Z,23.90
2024-02-15T11:40:26.623Z,23.70
2024-02-15T11:42:55.544Z,24.10
2024-02-15T11:45:23.100Z,24.20
2024-02-15T11:47:54.023Z,24.40
2024-02-15T11:50:24.323Z,23.80
2024-02-15T11:52:52.982Z,23.90
2024-02-15T11:55:23.555Z,23.20
2024-02-15T11:58:10.899Z,23.00
2024-02-15T12:00:57.703Z,23.20
2024-02-15T12:03:52.803Z,22.60
2024-02-15T12:06:48.138Z,22.50
2024-02-15T12:09:39.129Z,22.60
2024-02-15T12:12:25.522Z,22.50
2024-02-15T12:15:23.041Z,23.30
2024-02-15T12:18:08.846Z,24.20
2024-02-15T12:20:36.343Z,24.60
2024-02-15T12:23:03.689Z,24.90
2024-02-15T12:25:34.281Z,25.20
2024-02-15T12:28:05.504Z,24.80
2024-02-15T12:30:38.099Z,24.40
2024-02-15T12:33:14.310Z,24.40
2024-02-15T12:35:43.301Z,24.80
2024-02-15T12:38:10.584Z,24.30
2024-02-15T12:40:41.834Z,24.20
2024-02-15T12:43:10.669Z,24.80
2024-02-15T12:45:40.401Z,25.20
2024-02-15T12:48:09.395Z,25.00
2024-02-15T12:50:36.684Z,25.70
2024-02-15T12:53:04.124Z,26.10
2024-02-15T12:55:36.251Z,26.50
2024-02-15T12:58:09.959Z,26.50
2024-02-15T13:00:41.119Z,27.10
2024-02-15T13:03:11.264Z,27.10
2024-02-15T13:05:40.209Z,27.80
2024-02-15T13:08:14.337Z,26.90
2024-02-15T13:10:41.725Z,27.00
2024-02-15T13:13:10.812Z,26.40
2024-02-15T13:15:38.478Z,27.40
2024-02-15T13:18:06.932Z,28.50
2024-02-15T13:20:35.884Z,28.10
2024-02-15T13:23:24.074Z,28.50
2024-02-15T13:25:53.422Z,28.70
2024-02-15T13:28:20.767Z,29.50
2024-02-15T13:30:50.488Z,28.80
2024-02-15T13:33:18.090Z,27.90
2024-02-15T13:35:45.529Z,27.60
2024-02-15T13:38:16.035Z,28.10
2024-02-15T13:40:43.627Z,27.40
2024-02-15T13:43:10.695Z,27.50
2024-02-15T13:45:42.466Z,27.60
2024-02-15T13:48:10.814Z,27.90
2024-02-15T13:50:40.255Z,28.30
2024-02-15T13:53:07.991Z,28.40
2024-02-15T13:55:36.773Z,28.10
2024-02-15T13:58:03.929Z,27.30
2024-02-15T14:00:31.417Z,27.50
2024-02-15T14:03:00.140Z,26.80
2024-02-15T14:05:30.177Z,26.40
2024-02-15T14:08:03.231Z,26.50
2024-02-15T14:10:36.249Z,26.50
2024-02-15T14:13:09.927Z,26.20
2024-02-15T14:15:40.740Z,25.60
2024-02-15T14:18:14.849Z,25.10
2024-02-15T14:20:43.997Z,24.60
2024-02-15T14:23:15.063Z,24.70
2024-02-15T14:25:46.429Z,25.10
2024-02-15T14:28:15.237Z,25.80
2024-02-15T14:31:00.695Z,26.20
2024-02-15T14:35:57.795Z,25.60
2024-02-15T14:38:25.398Z,25.30
2024-02-15T14:40:55.113Z,25.20
2024-02-15T14:43:26.704Z,24.90
2024-02-15T14:45:55.119Z,25.00
2024-02-15T14:48:22.595Z,25.40
2024-02-15T14:50:52.207Z,26.00
2024-02-15T14:53:20.046Z,26.60
2024-02-15T14:55:50.598Z,26.90
2024-02-15T14:58:18.769Z,26.70
2024-02-15T15:00:48.235Z,26.60
2024-02-15T15:03:17.355Z,26.10
2024-02-15T15:06:03.984Z,25.50
2024-02-15T15:08:49.965Z,24.20
2024-02-15T15:11:35.466Z,22.70
2024-02-15T15:14:05.636Z,21.60
2024-02-15T15:16:32.879Z,20.50
2024-02-15T15:19:00.109Z,19.90
2024-02-15T15:21:29.031Z,19.50
2024-02-15T15:23:57.259Z,19.30
2024-02-15T15:26:24.504Z,18.90
2024-02-15T15:28:51.962Z,18.70
2024-02-15T15:31:21.463Z,18.40
2024-02-15T15:33:53.726Z,18.20
2024-02-15T15:36:22.515Z,18.30
2024-02-15T15:38:49.677Z,18.30
2024-02-15T15:41:17.201Z,18.30
2024-02-15T15:43:44.337Z,18.10
2024-02-15T15:46:17.932Z,17.90
2024-02-15T15:48:45.314Z,17.70
2024-02-15T15:51:13.741Z,17.60
2024-02-15T15:53:41.578Z,17.30
2024-02-15T15:56:08.978Z,16.80
2024-02-15T15:58:36.156Z,16.50
2024-02-15T16:01:04.856Z,16.30
2024-02-15T16:03:32.575Z,16.20
2024-02-15T16:05:59.716Z,16.00
2024-02-15T16:08:27.959Z,15.80
2024-02-15T16:10:55.363Z,15.70
2024-02-15T16:13:23.905Z,15.60
2024-02-15T16:15:55.188Z,15.40
2024-02-15T16:18:22.750Z,15.20
2024-02-15T16:20:52.806Z,15.00
2024-02-15T16:23:21.702Z,14.70
2024-02-15T16:25:48.693Z,14.60
2024-02-15T16:28:16.045Z,14.40
2024-02-15T16:30:43.812Z,14.40
2024-02-15T16:33:10.998Z,14.20
2024-02-15T16:35:37.998Z,14.00
2024-02-15T16:38:06.324Z,13.90
2024-02-15T16:40:33.440Z,13.80
2024-02-15T16:43:01.841Z,13.60
2024-02-15T16:45:28.965Z,13.60
2024-02-15T16:48:01.834Z,13.40
2024-02-15T16:50:29.196Z,13.40
2024-02-15T16:52:56.332Z,13.30
2024-02-15T16:55:32.240Z,13.20
2024-02-15T16:58:09.066Z,13.10
2024-02-15T17:00:36.380Z,13.00
2024-02-15T17:03:04.006Z,12.90
2024-02-15T17:05:31.074Z,12.70
2024-02-15T17:07:58.321Z,12.70
2024-02-15T17:10:26.186Z,12.60
2024-02-15T17:12:53.916Z,12.50
2024-02-15T17:15:27.830Z,12.40
2024-02-15T17:17:56.159Z,12.40
2024-02-15T17:20:24.776Z,12.40
2024-02-15T17:22:53.348Z,12.30
2024-02-15T17:25:26.470Z,12.30
2024-02-15T17:28:00.002Z,12.30
2024-02-15T17:30:27.242Z,12.20
2024-02-15T17:32:54.565Z,12.10
2024-02-15T17:35:22.472Z,12.10
2024-02-15T17:37:49.781Z,12.10
2024-02-15T17:40:17.809Z,12.00
2024-02-15T17:42:44.954Z,12.00
2024-02-15T17:45:13.286Z,11.90
2024-02-15T17:47:42.734Z,11.90
2024-02-15T17:50:12.662Z,11.80
2024-02-15T17:52:40.042Z,11.80
2024-02-15T17:55:10.287Z,11.70
2024-02-15T17:57:39.287Z,11.60
2024-02-15T18:00:16.058Z,11.60
2024-02-15T18:02:51.088Z,11.60
2024-02-15T18:05:20.379Z,11.50
2024-02-15T18:07:48.434Z,11.50
2024-02-15T18:10:18.257Z,11.40
2024-02-15T18:12:45.379Z,11.40
2024-02-15T18:15:26.033Z,11.30
2024-02-15T18:17:56.534Z,11.30
2024-02-15T18:20:24.461Z,11.20
2024-02-15T18:22:53.134Z,11.30
2024-02-15T18:25:20.098Z,11.20
2024-02-15T18:27:47.788Z,11.20
2024-02-15T18:30:19.338Z,11.20
2024-02-15T18:32:47.391Z,11.20
2024-02-15T18:35:17.259Z,11.10
2024-02-15T18:37:45.958Z,11.10
2024-02-15T18:40:22.267Z,11.10
2024-02-15T18:42:53.252Z,11.10
2024-02-15T18:45:20.756Z,11.10
2024-02-15T18:47:48.059Z,11.00
2024-02-15T18:50:17.045Z,10.90
2024-02-15T18:52:44.463Z,10.80
2024-02-15T18:55:13.320Z,10.80
2024-02-15T18:57:40.401Z,10.80
2024-02-15T19:00:16.390Z,10.80
2024-02-15T19:02:53.155Z,10.70
2024-02-15T19:05:24.134Z,10.60
2024-02-15T19:07:52.308Z,10.60
2024-02-15T19:10:21.081Z,10.60
2024-02-15T19:12:48.787Z,10.60
2024-02-15T19:15:16.155Z,10.60
2024-02-15T19:17:43.413Z,10.50
2024-02-15T19:20:11.404Z,10.60
2024-02-15T19:22:39.316Z,10.50
2024-02-15T19:25:07.371Z,10.40
2024-02-15T19:27:37.430Z,10.50
2024-02-15T19:30:04.875Z,10.60
2024-02-15T19:32:31.867Z,10.60
2024-02-15T19:34:58.963Z,10.60
2024-02-15T19:37:31.221Z,10.50
2024-02-15T19:39:58.130Z,10.50
2024-02-15T19:42:25.117Z,10.50
2024-02-15T19:44:52.345Z,10.50
2024-02-15T19:47:21.491Z,10.50
2024-02-15T19:49:48.437Z,10.40
2024-02-15T19:52:16.864Z,10.40
2024-02-15T19:54:43.786Z,10.40
2024-02-15T19:57:10.791Z,10.50
2024-02-15T19:59:37.804Z,10.50
2024-02-15T20:02:04.924Z,10.50
2024-02-15T20:04:36.678Z,10.40
2024-02-15T20:07:04.792Z,10.40
2024-02-15T20:09:40.531Z,10.40
2024-02-15T20:12:14.846Z,10.40
2024-02-15T20:14:42.358Z,10.30
2024-02-15T20:17:11.589Z,10.30
2024-02-15T20:19:39.464Z,10.30
2024-02-15T20:22:08.309Z,10.10
2024-02-15T20:24:38.852Z,10.20
2024-02-15T20:27:06.467Z,10.10
2024-02-15T20:29:35.269Z,10.10
2024-02-15T20:32:02.307Z,10.00
2024-02-15T20:34:29.501Z,10.00
2024-02-15T20:36:58.928Z,10.10
2024-02-15T20:39:27.259Z,9.90
2024-02-15T20:41:54.438Z,9.90
2024-02-15T20:44:21.481Z,9.90
2024-02-15T20:46:48.492Z,9.80
2024-02-15T20:49:16.196Z,9.70
2024-02-15T20:51:43.414Z,9.70
2024-02-15T20:54:10.350Z,9.60
2024-02-15T20:56:38.159Z,9.60
2024-02-15T20:59:08.849Z,9.60
2024-02-15T21:01:38.158Z,9.50
2024-02-15T21:04:06.703Z,9.50
2024-02-15T21:06:38.603Z,9.40
2024-02-15T21:09:12.446Z,9.40
2024-02-15T21:11:40.251Z,9.40
2024-02-15T21:14:08.553Z,9.30
2024-02-15T21:16:35.551Z,9.30
2024-02-15T21:19:09.777Z,9.20
2024-02-15T21:21:37.681Z,9.20
2024-02-15T21:24:06.942Z,9.20
2024-02-15T21:26:34.473Z,9.20
2024-02-15T21:29:03.527Z,9.20
2024-02-15T21:31:30.417Z,9.10
2024-02-15T21:33:58.643Z,9.10
2024-02-15T21:36:25.746Z,9.00
2024-02-15T21:38:54.441Z,9.00
2024-02-15T21:41:22.335Z,9.00
2024-02-15T21:43:49.434Z,8.90
2024-02-15T21:46:16.425Z,8.90
2024-02-15T21:48:44.867Z,8.80
2024-02-15T21:51:12.163Z,8.80
2024-02-15T21:53:41.885Z,8.80
2024-02-15T21:56:16.140Z,8.80
2024-02-15T21:58:43.002Z,8.80
2024-02-15T22:01:10.697Z,8.70
2024-02-15T22:03:37.622Z,8.70
2024-02-15T22:06:05.081Z,8.70
2024-02-15T22:08:31.994Z,8.70
2024-02-15T22:10:59.033Z,8.70
2024-02-15T22:13:25.879Z,8.70
2024-02-15T22:15:52.702Z,8.60
2024-02-15T22:18:19.662Z,8.60
2024-02-15T22:20:47.653Z,8.60
2024-02-15T22:23:14.537Z,8.40
2024-02-15T22:25:41.444Z,8.30
2024-02-15T22:28:08.416Z,8.30
2024-02-15T22:30:35.693Z,8.20
2024-02-15T22:33:02.809Z,8.10
2024-02-15T22:35:29.758Z,8.10
2024-02-15T22:37:56.588Z,8.00
2024-02-15T22:40:23.401Z,8.00
2024-02-15T22:42:50.250Z,8.00
2024-02-15T22:45:17.682Z,8.00
2024-02-15T22:47:46.243Z,7.90
2024-02-15T22:50:13.627Z,7.90
2024-02-15T22:52:40.802Z,7.80
2024-02-15T22:55:08.151Z,7.80
2024-02-15T22:57:35.299Z,7.80
2024-02-15T23:00:02.522Z,7.70
2024-02-15T23:02:29.611Z,7.60
2024-02-15T23:04:56.714Z,7.50
2024-02-15T23:07:24.730Z,7.50
2024-02-15T23:09:51.971Z,7.40
2024-02-15T23:12:19.009Z,7.40
2024-02-15T23:14:46.058Z,7.40
2024-02-15T23:17:13.161Z,7.40
2024-02-15T23:19:40.609Z,7.40
2024-02-15T23:22:11.447Z,7.40
2024-02-15T23:24:38.987Z,7.40
2024-02-15T23:27:06.713Z,7.40
2024-02-15T23:29:33.932Z,7.40
2024-02-15T23:32:00.807Z,7.50
2024-02-15T23:34:27.859Z,7.50
2024-02-15T23:37:13.147Z,7.50
2024-02-15T23:39:58.532Z,7.50
2024-02-15T23:42:26.472Z,7.50
2024-02-15T23:44:54.406Z,7.50
2024-02-15T23:47:21.319Z,7.40
2024-02-15T23:49:49.091Z,7.50
2024-02-15T23:52:16.061Z,7.50
2024-02-15T23:54:42.950Z,7.50
2024-02-15T23:57:09.969Z,7.50
2024-02-15T23:59:36.927Z,7.50
